AirNav   Pilot Hours Calculator
 
 1611 users online  

0M2 Reelfoot Lake Airport
Tiptonville, Tennessee, USA

GOING TO TIPTONVILLE?


FAA INFORMATION EFFECTIVE 28 MARCH 2019

Location

FAA Identifier: 0M2
Lat/Long: 36-28-31.2000N / 089-20-46.7000W
36-28.520000N / 089-20.778333W
36.4753333 / -89.3463056
(estimated)
Elevation: 289 ft. / 88 m (estimated)
Variation: 02E (1985)
From city: 9 miles NE of TIPTONVILLE, TN
Time zone: UTC -5 (UTC -6 during Standard Time)
Zip code: 38079

Airport Operations

Airport use: Open to the public
Control tower: no
ARTCC: MEMPHIS CENTER
FSS: JACKSON FLIGHT SERVICE STATION
NOTAMs facility: MKL (NOTAM-D service available)
Attendance: UNATNDD
Wind indicator: yes
Segmented circle: yes
Beacon: white-green (lighted land airport)
OTS INDEFLY. Operates sunset to sunrise.

Airport Communications

CTAF: 122.9
WX AWOS-3 at UCY (18 nm E): 135.325 (731-885-9161)

Nearby radio navigation aids

VOR radial/distance  VOR name  Freq  Var
DYRr354/27.4DYERSBURG VORTAC116.8003E
MAWr097/27.7MALDEN VORTAC111.2003E

 
NDB name  Hdg/Dist  Freq  Var  ID
CHARLESTON181/22.220802WCHQ -.-. .... --.-
CAIRO190/35.639700ECIR -.-. .. .-.

Airport Services

Parking: tiedowns
Airframe service: NONE
Powerplant service: NONE
Bottled oxygen: NONE
Bulk oxygen: NONE

Runway Information

Runway 1/19

Dimensions: 3500 x 75 ft. / 1067 x 23 m
Surface: asphalt, in good condition
Weight bearing capacity: 
Single wheel: 25.0
Double wheel: 37.0
RUNWAY 1  RUNWAY 19
Latitude: 36-28.234363N36-28.807207N
Longitude: 089-20.821002W089-20.735768W
Elevation: 287.0 ft.288.0 ft.
Traffic pattern: leftright
Runway heading: 005 magnetic, 007 true185 magnetic, 187 true
Markings: basic, in fair conditionbasic, in fair condition
Runway end identifier lights: nono
Obstructions: 61 ft. trees, 1001 ft. from runway, 97 ft. left of centerline, 13:1 slope to clear106 ft. fence, 2180 ft. from runway, 221 ft. left of centerline, 18:1 slope to clear

Airport Ownership and Management from official FAA records

Ownership: Publicly-owned
Owner: TDOT OFFICE OF AERONAUTICS
607 HANGAR LANE
NASHVILLE, TN 37217
Phone 615-741-3208
Manager: LYLE MONROE
607 HANGAR LANE
NASHVILLE, TN 37217
Phone 615-741-3208

Airport Operational Statistics

Aircraft based on the field: 1
Single engine airplanes: 1
    
Aircraft operations: avg 54/week *
89% transient general aviation
11% military
<1% local general aviation
* for 12-month period ending 30 December 2018

Additional Remarks

MAINTAIN 2000 FT OVER LAKE EAST OF ARPT (FEDERAL GAME REFUGE).

Instrument Procedures

There are no published instrument procedures at 0M2.

Some nearby airports with instrument procedures:

KEIW - County Memorial Airport (13 nm W)
KUCY - Everett-Stewart Regional Airport (18 nm E)
KCHQ - Mississippi County Airport (22 nm N)
M05 - Caruthersville Memorial Airport (24 nm SW)
M85 - Gideon Memorial Airport (27 nm W)
 
Loc | Ops | Rwys | IFR | FBO | Links
Com | Nav | Svcs | Stats | Notes
Area around 0M2 (Reelfoot Lake Airport)
 
Road maps at: MapQuest Bing Google
 
Aerial photo
WARNING: Photo may not be current or correct
Aerial photo of 0M2 (Reelfoot Lake Airport)
Photo by H Hough
Taken in September 2012
looking north.

Do you have a better or more recent aerial photo of Reelfoot Lake Airport that you would like to share? If so, please send us your photo.

 
Sectional chart

 
Airport distance calculator
Flying to Reelfoot Lake Airport? Find the distance to fly.

From to 0M2

Sunrise and sunset
Times for 23-Apr-2019
 Local
(UTC-5)
 Zulu
(UTC)
Morning civil twilight05:4710:47
Sunrise06:1411:14
Sunset19:3700:37
Evening civil twilight20:0401:04

Current date and time
Zulu (UTC)  23-Apr-2019 15:55:06
Local (UTC-5)  23-Apr-2019 10:55:06
 
METAR
KUCY 
18nm E 
231535Z AUTO 22007KT 10SM CLR 21/13 A3006 RMK A01
KDYR 
29nm S 
231456Z AUTO 00000KT 10SM CLR 21/14 A3009 RMK AO2 SLP200 6//// T02060139 50002 PNO $
KMAW 
32nm W 
231535Z AUTO 17005KT 10SM CLR 21/14 A3006 RMK AO2
KCIR 
36nm N 
231535Z AUTO 19003KT 10SM CLR 20/14 A3006 RMK AO2 T02010135
KTKX 
37nm SW 
231535Z AUTO 23010KT 7SM CLR 22/14 A3005 RMK AO2
TAF
KPAH 
45nm NE 
231137Z 2312/2412 22007KT P6SM SCT200 FM232200 26007KT P6SM BKN150 FM240400 00000KT P6SM BKN027
KCGI 
47nm N 
231137Z 2312/2412 VRB04KT P6SM SCT180 FM240000 VRB04KT P6SM VCSH BKN045 FM240600 VRB04KT P6SM BKN024
NOTAMs
Click for the latest NOTAMs
NOTAMs are issued by the DoD/FAA and will open in a separate window not controlled by AirNav.

 

 
 

Would you like to see your business listed on this page?

 If your business provides an interesting product or service to pilots, flight crews, aircraft, or users of the Reelfoot Lake Airport, you should consider listing it here.  To start the listing process, click on the button below
 
Add a business
 

Other Pages about Reelfoot Lake Airport

Update a link
 
Copyright © AirNav, LLC. All rights reserved. Privacy Policy  Contact